createdAt,value
2023-03-20T00:02:32.079Z,38.80
2023-03-20T00:07:57.570Z,33.80
2023-03-20T00:13:28.648Z,34.10
2023-03-20T00:18:53.283Z,28.20
2023-03-20T00:24:20.604Z,27.10
2023-03-20T00:29:46.205Z,22.10
2023-03-20T00:35:19.610Z,20.70
2023-03-20T00:40:45.028Z,18.90
2023-03-20T00:46:13.837Z,23.60
2023-03-20T00:51:38.611Z,17.50
2023-03-20T00:57:07.153Z,18.60
2023-03-20T01:02:32.082Z,22.60
2023-03-20T01:07:57.171Z,17.50
2023-03-20T01:13:24.813Z,19.70
2023-03-20T01:18:49.133Z,23.20
2023-03-20T01:24:13.727Z,36.10
2023-03-20T01:29:39.285Z,30.00
2023-03-20T01:35:04.442Z,28.30
2023-03-20T01:40:37.998Z,24.50
2023-03-20T01:46:18.592Z,36.40
2023-03-20T01:51:43.057Z,39.90
2023-03-20T01:57:17.589Z,37.50
2023-03-20T02:02:47.617Z,31.80
2023-03-20T02:08:37.335Z,36.90
2023-03-20T02:14:02.119Z,28.40
2023-03-20T02:19:52.600Z,28.60
2023-03-20T02:25:51.655Z,32.10
2023-03-20T02:31:56.951Z,38.10
2023-03-20T02:37:47.414Z,36.80
2023-03-20T02:43:25.732Z,35.40
2023-03-20T02:49:08.987Z,38.00
2023-03-20T02:54:44.354Z,34.00
2023-03-20T03:00:23.964Z,35.40
2023-03-20T03:05:55.024Z,28.00
2023-03-20T03:11:19.484Z,23.60
2023-03-20T03:16:46.701Z,22.30
2023-03-20T03:22:10.617Z,19.00
2023-03-20T03:27:41.492Z,17.40
2023-03-20T03:33:33.107Z,23.30
2023-03-20T03:39:19.279Z,22.10
2023-03-20T03:45:09.417Z,19.10
2023-03-20T03:50:49.059Z,17.20
2023-03-20T03:56:17.196Z,15.90
2023-03-20T04:01:44.716Z,14.70
2023-03-20T04:07:08.656Z,16.60
2023-03-20T04:12:43.663Z,15.80
2023-03-20T04:18:08.919Z,15.40
2023-03-20T04:23:35.950Z,16.70
2023-03-20T04:29:02.014Z,16.70
2023-03-20T04:34:44.298Z,17.50
2023-03-20T04:40:24.956Z,17.90
2023-03-20T04:45:49.453Z,20.30
2023-03-20T04:51:14.738Z,16.90
2023-03-20T04:56:46.208Z,24.90
2023-03-20T05:02:15.414Z,18.80
2023-03-20T05:07:39.522Z,19.20
2023-03-20T05:13:06.620Z,20.90
2023-03-20T05:18:48.407Z,19.90
2023-03-20T05:24:33.910Z,21.40
2023-03-20T05:30:14.786Z,20.40
2023-03-20T05:36:14.184Z,14.70
2023-03-20T05:41:52.293Z,18.00
2023-03-20T05:47:35.201Z,16.30
2023-03-20T05:53:19.497Z,19.50
2023-03-20T05:59:08.254Z,19.50
2023-03-20T06:04:56.414Z,20.40
2023-03-20T06:10:24.794Z,18.60
2023-03-20T06:15:48.883Z,17.60
2023-03-20T06:21:14.430Z,17.30
2023-03-20T06:26:39.359Z,19.60
2023-03-20T06:32:13.790Z,18.60
2023-03-20T06:37:38.663Z,22.40
2023-03-20T06:43:06.234Z,17.20
2023-03-20T06:48:38.573Z,17.70
2023-03-20T06:54:03.633Z,21.30
2023-03-20T06:59:28.567Z,22.70
2023-03-20T07:04:55.743Z,20.20
2023-03-20T07:10:24.021Z,22.00
2023-03-20T07:16:03.311Z,23.10
2023-03-20T07:21:30.390Z,20.50
2023-03-20T07:26:55.516Z,19.20
2023-03-20T07:32:19.764Z,16.40
2023-03-20T07:37:50.641Z,17.10
2023-03-20T07:43:18.625Z,16.10
2023-03-20T07:49:09.046Z,15.70
2023-03-20T07:54:33.321Z,15.10
2023-03-20T07:59:57.648Z,12.10
2023-03-20T08:05:21.446Z,12.20
2023-03-20T08:10:46.888Z,11.00
2023-03-20T08:16:11.190Z,11.90
2023-03-20T08:21:35.039Z,9.60
2023-03-20T08:26:59.093Z,10.00
2023-03-20T08:32:23.135Z,8.60
2023-03-20T08:37:47.227Z,11.00
2023-03-20T08:43:12.491Z,9.10
2023-03-20T08:48:37.143Z,8.20
2023-03-20T08:54:01.552Z,9.10
2023-03-20T08:59:25.553Z,9.10
2023-03-20T09:04:49.683Z,8.10
2023-03-20T09:10:13.903Z,10.20
2023-03-20T09:15:39.283Z,9.00
2023-03-20T09:21:04.203Z,7.50
2023-03-20T09:26:28.104Z,8.80
2023-03-20T09:31:54.042Z,6.50
2023-03-20T09:37:18.138Z,7.50
2023-03-20T09:42:59.191Z,5.50
2023-03-20T09:48:56.866Z,6.60
2023-03-20T09:54:52.728Z,9.70
2023-03-20T10:00:20.749Z,9.00
2023-03-20T10:06:04.805Z,8.10
2023-03-20T10:11:31.955Z,13.60
2023-03-20T10:17:05.554Z,8.20
2023-03-20T10:22:36.745Z,8.30
2023-03-20T10:28:04.531Z,7.40
2023-03-20T10:33:56.297Z,8.90
2023-03-20T10:39:36.362Z,7.80
2023-03-20T10:45:28.190Z,8.40
2023-03-20T10:50:55.892Z,9.20
2023-03-20T10:56:31.964Z,7.90
2023-03-20T11:01:56.882Z,5.80
2023-03-20T11:07:24.045Z,8.70
2023-03-20T11:12:49.901Z,5.80
2023-03-20T11:18:16.150Z,9.50
2023-03-20T11:23:41.131Z,8.60
2023-03-20T11:29:12.229Z,7.80
2023-03-20T11:34:38.353Z,6.30
2023-03-20T11:40:08.433Z,10.00
2023-03-20T11:45:38.260Z,7.20
2023-03-20T11:51:09.459Z,12.70
2023-03-20T11:56:35.853Z,8.40
2023-03-20T12:02:05.797Z,8.40
2023-03-20T12:07:38.483Z,16.50
2023-03-20T12:13:12.498Z,7.80
2023-03-20T12:18:42.361Z,7.40
2023-03-20T12:24:16.094Z,8.90
2023-03-20T12:29:50.478Z,8.80
2023-03-20T12:35:31.727Z,9.50
2023-03-20T12:41:13.569Z,9.60
2023-03-20T12:47:27.810Z,7.80
2023-03-20T12:53:09.828Z,11.50
2023-03-20T12:58:39.679Z,9.30
2023-03-20T13:04:35.832Z,12.30
2023-03-20T13:10:18.383Z,9.70
2023-03-20T13:16:09.720Z,9.10
2023-03-20T13:21:41.707Z,9.50
2023-03-20T13:27:23.626Z,11.60
2023-03-20T13:33:24.985Z,9.00
2023-03-20T13:39:01.175Z,8.10
2023-03-20T13:44:29.380Z,6.90
2023-03-20T13:50:31.569Z,6.90
2023-03-20T13:56:33.174Z,6.40
2023-03-20T14:02:34.119Z,8.60
2023-03-20T14:07:59.121Z,4.90
2023-03-20T14:13:26.085Z,5.80
2023-03-20T14:19:14.469Z,6.20
2023-03-20T14:24:40.851Z,5.60
2023-03-20T14:30:30.007Z,5.80
2023-03-20T14:36:18.954Z,5.90
2023-03-20T14:42:16.668Z,8.10
2023-03-20T14:47:52.735Z,6.70
2023-03-20T14:53:22.906Z,7.10
2023-03-20T14:58:49.550Z,6.40
2023-03-20T15:04:31.409Z,6.30
2023-03-20T15:10:00.019Z,6.70
2023-03-20T15:15:29.545Z,8.40
2023-03-20T15:20:56.808Z,9.80
2023-03-20T15:26:25.831Z,9.30
2023-03-20T15:32:12.928Z,8.30
2023-03-20T15:37:38.144Z,9.90
2023-03-20T15:43:14.164Z,8.30
2023-03-20T15:48:38.207Z,9.80
2023-03-20T15:54:08.314Z,9.90
2023-03-20T15:59:35.310Z,9.00
2023-03-20T16:05:00.096Z,9.80
2023-03-20T16:10:36.575Z,10.40
2023-03-20T16:16:02.901Z,13.60
2023-03-20T16:21:32.680Z,12.40
2023-03-20T16:26:58.809Z,11.10
2023-03-20T16:32:33.439Z,13.20
2023-03-20T16:38:01.665Z,12.80
2023-03-20T16:43:30.745Z,14.70
2023-03-20T16:48:59.466Z,14.30
2023-03-20T16:54:23.540Z,12.70
2023-03-20T16:59:48.533Z,15.20
2023-03-20T17:05:14.970Z,17.10
2023-03-20T17:10:40.942Z,15.00
2023-03-20T17:16:06.169Z,13.70
2023-03-20T17:21:30.553Z,14.10
2023-03-20T17:26:56.708Z,15.60
2023-03-20T17:32:24.356Z,12.40
2023-03-20T17:37:49.637Z,13.60
2023-03-20T17:43:15.961Z,14.70
2023-03-20T17:48:41.052Z,13.80
2023-03-20T17:54:05.873Z,17.50
2023-03-20T17:59:31.577Z,16.60
2023-03-20T18:04:55.969Z,18.70
2023-03-20T18:10:26.779Z,16.10
2023-03-20T18:15:53.919Z,16.60
2023-03-20T18:21:18.541Z,15.20
2023-03-20T18:26:44.475Z,18.00
2023-03-20T18:32:09.594Z,22.70
2023-03-20T18:37:33.715Z,24.20
2023-03-20T18:42:59.099Z,24.30
2023-03-20T18:48:25.515Z,25.10
2023-03-20T18:53:50.416Z,24.30
2023-03-20T18:59:14.801Z,25.00
2023-03-20T19:04:39.417Z,25.30
2023-03-20T19:10:03.993Z,23.60
2023-03-20T19:15:31.351Z,23.10
2023-03-20T19:20:58.402Z,27.60
2023-03-20T19:26:25.040Z,26.10
2023-03-20T19:31:49.848Z,32.30
2023-03-20T19:37:13.962Z,26.00
2023-03-20T19:42:59.861Z,31.70
2023-03-20T19:48:46.124Z,35.80
2023-03-20T19:54:14.206Z,32.50
2023-03-20T19:59:43.728Z,29.10
2023-03-20T20:05:18.366Z,33.60
2023-03-20T20:10:46.215Z,34.00
2023-03-20T20:16:10.733Z,29.20
2023-03-20T20:22:17.159Z,27.50
2023-03-20T20:27:21.933Z,33.40
2023-03-20T20:32:47.667Z,27.50
2023-03-20T20:38:44.607Z,31.50
2023-03-20T20:44:16.233Z,30.60
2023-03-20T20:49:42.208Z,28.10
2023-03-20T20:55:22.052Z,27.00
2023-03-20T21:00:54.733Z,30.50
2023-03-20T21:06:21.952Z,30.10
2023-03-20T21:11:47.197Z,31.00
2023-03-20T21:17:12.256Z,30.90
2023-03-20T21:22:38.051Z,31.90
2023-03-20T21:28:04.577Z,28.90
2023-03-20T21:33:31.941Z,26.70
2023-03-20T21:39:13.411Z,29.10
2023-03-20T21:45:34.491Z,24.10
2023-03-20T21:51:15.124Z,28.90
2023-03-20T21:56:48.979Z,25.80
2023-03-20T22:02:19.176Z,24.80
2023-03-20T22:08:18.512Z,22.30
2023-03-20T22:20:07.195Z,27.90
2023-03-20T22:25:45.918Z,24.90
2023-03-20T22:31:28.711Z,25.20
2023-03-20T22:42:52.954Z,27.50
2023-03-20T22:47:56.701Z,26.80
2023-03-20T22:53:20.628Z,25.50
2023-03-20T22:58:44.898Z,23.40
2023-03-20T23:04:09.481Z,23.60
2023-03-20T23:09:35.557Z,25.80
2023-03-20T23:15:00.032Z,24.20
2023-03-20T23:20:24.426Z,30.10
2023-03-20T23:25:48.763Z,26.40
2023-03-20T23:31:16.184Z,24.30
2023-03-20T23:36:40.439Z,25.50
2023-03-20T23:42:17.332Z,23.90
2023-03-20T23:47:46.038Z,20.40
2023-03-20T23:53:19.934Z,20.00
2023-03-20T23:58:59.464Z,19.70
